createdAt,value
2022-09-13T00:01:43.567Z,9.10
2022-09-13T00:04:12.643Z,9.02
2022-09-13T00:06:41.741Z,8.94
2022-09-13T00:09:10.833Z,8.82
2022-09-13T00:11:42.050Z,8.90
2022-09-13T00:14:11.417Z,8.84
2022-09-13T00:16:40.586Z,8.75
2022-09-13T00:19:09.861Z,8.73
2022-09-13T00:21:44.030Z,8.76
2022-09-13T00:24:18.310Z,8.77
2022-09-13T00:26:49.318Z,8.74
2022-09-13T00:29:19.179Z,8.69
2022-09-13T00:31:48.577Z,8.65
2022-09-13T00:34:17.840Z,8.62
2022-09-13T00:36:47.271Z,8.48
2022-09-13T00:39:16.366Z,8.63
2022-09-13T00:41:45.504Z,8.58
2022-09-13T00:44:58.264Z,8.61
2022-09-13T00:47:38.259Z,8.52
2022-09-13T00:50:13.033Z,8.51
2022-09-13T00:52:46.856Z,8.54
2022-09-13T00:55:21.876Z,8.55
2022-09-13T00:57:52.258Z,8.44
2022-09-13T01:00:22.439Z,8.39
2022-09-13T01:02:57.871Z,8.38
2022-09-13T01:05:31.851Z,8.24
2022-09-13T01:08:22.552Z,8.13
2022-09-13T01:10:59.167Z,8.11
2022-09-13T01:13:31.558Z,8.12
2022-09-13T01:16:01.609Z,8.07
2022-09-13T01:18:32.729Z,8.05
2022-09-13T01:21:39.051Z,7.93
2022-09-13T01:24:27.220Z,7.94
2022-09-13T01:27:27.999Z,7.87
2022-09-13T01:30:11.117Z,7.88
2022-09-13T01:32:57.855Z,7.91
2022-09-13T01:35:41.023Z,7.87
2022-09-13T01:38:26.638Z,7.97
2022-09-13T01:41:08.233Z,7.84
2022-09-13T01:43:59.626Z,7.92
2022-09-13T01:46:38.197Z,7.83
2022-09-13T01:49:19.908Z,7.84
2022-09-13T01:51:54.590Z,7.80
2022-09-13T01:54:41.453Z,7.80
2022-09-13T01:57:17.527Z,7.67
2022-09-13T01:59:52.414Z,7.58
2022-09-13T02:02:31.319Z,7.64
2022-09-13T02:05:07.498Z,7.65
2022-09-13T02:07:45.534Z,7.58
2022-09-13T02:10:18.970Z,7.53
2022-09-13T02:12:50.457Z,7.48
2022-09-13T02:15:24.809Z,7.46
2022-09-13T02:18:12.447Z,7.39
2022-09-13T02:20:46.375Z,7.37
2022-09-13T02:23:19.042Z,7.34
2022-09-13T02:25:51.470Z,7.27
2022-09-13T02:28:25.794Z,7.25
2022-09-13T02:30:56.340Z,7.31
2022-09-13T02:33:33.382Z,7.32
2022-09-13T02:36:06.414Z,7.24
2022-09-13T02:38:40.561Z,7.22
2022-09-13T02:41:20.827Z,7.33
2022-09-13T02:43:55.666Z,7.26
2022-09-13T02:46:46.794Z,7.46
2022-09-13T02:49:28.977Z,7.42
2022-09-13T02:52:09.289Z,7.38
2022-09-13T02:54:45.791Z,7.38
2022-09-13T03:00:00.457Z,7.32
2022-09-13T03:02:34.896Z,7.34
2022-09-13T03:05:07.024Z,7.27
2022-09-13T03:07:36.079Z,7.27
2022-09-13T03:10:09.307Z,7.30
2022-09-13T03:12:57.165Z,7.31
2022-09-13T03:15:42.830Z,7.35
2022-09-13T03:18:25.783Z,7.38
2022-09-13T03:21:08.772Z,7.44
2022-09-13T03:23:59.838Z,7.33
2022-09-13T03:26:38.472Z,7.45
2022-09-13T03:29:22.543Z,7.48
2022-09-13T03:32:04.021Z,7.49
2022-09-13T03:37:28.134Z,7.54
2022-09-13T03:40:03.139Z,7.59
2022-09-13T03:42:41.740Z,7.32
2022-09-13T03:45:23.732Z,7.64
2022-09-13T03:47:54.088Z,7.67
2022-09-13T03:50:25.186Z,7.57
2022-09-13T03:53:02.112Z,7.63
2022-09-13T03:55:34.408Z,7.65
2022-09-13T03:58:08.649Z,7.68
2022-09-13T04:00:40.051Z,7.62
2022-09-13T04:03:09.735Z,7.70
2022-09-13T04:05:39.178Z,7.69
2022-09-13T04:08:10.451Z,7.66
2022-09-13T04:10:40.652Z,7.60
2022-09-13T04:13:09.776Z,7.67
2022-09-13T04:15:38.907Z,7.96
2022-09-13T04:18:08.632Z,8.02
2022-09-13T04:20:37.665Z,8.03
2022-09-13T04:23:06.816Z,8.05
2022-09-13T04:25:40.912Z,7.95
2022-09-13T04:28:10.050Z,7.94
2022-09-13T04:30:42.594Z,7.88
2022-09-13T04:33:14.187Z,7.98
2022-09-13T04:35:43.397Z,8.04
2022-09-13T04:38:12.555Z,8.13
2022-09-13T04:40:48.764Z,8.19
2022-09-13T04:43:19.387Z,8.12
2022-09-13T04:45:53.917Z,8.19
2022-09-13T04:48:29.155Z,8.18
2022-09-13T04:51:04.353Z,8.13
2022-09-13T04:53:38.402Z,8.29
2022-09-13T04:56:10.082Z,8.31
2022-09-13T04:58:39.292Z,8.25
2022-09-13T05:01:10.193Z,8.47
2022-09-13T05:03:40.232Z,8.41
2022-09-13T05:06:11.681Z,8.63
2022-09-13T05:08:46.664Z,8.65
2022-09-13T05:11:17.996Z,8.76
2022-09-13T05:13:52.657Z,8.69
2022-09-13T05:16:22.122Z,8.82
2022-09-13T05:18:51.784Z,8.89
2022-09-13T05:21:21.751Z,8.77
2022-09-13T05:23:53.685Z,8.80
2022-09-13T05:26:26.625Z,8.98
2022-09-13T05:29:01.426Z,9.02
2022-09-13T05:31:32.823Z,9.05
2022-09-13T05:34:06.835Z,9.20
2022-09-13T05:39:31.711Z,9.32
2022-09-13T05:42:05.175Z,9.41
2022-09-13T05:44:34.309Z,9.50
2022-09-13T05:47:03.361Z,9.54
2022-09-13T05:49:55.269Z,9.62
2022-09-13T05:52:27.158Z,9.68
2022-09-13T05:54:56.405Z,9.67
2022-09-13T05:57:27.746Z,9.68
2022-09-13T06:00:01.817Z,9.67
2022-09-13T06:02:33.829Z,9.71
2022-09-13T06:05:03.065Z,9.78
2022-09-13T06:07:33.696Z,9.84
2022-09-13T06:10:10.838Z,9.95
2022-09-13T06:12:42.152Z,10.06
2022-09-13T06:17:51.713Z,10.29
2022-09-13T06:20:20.765Z,10.39
2022-09-13T06:22:49.958Z,10.44
2022-09-13T06:25:19.085Z,10.46
2022-09-13T06:27:50.515Z,10.59
2022-09-13T06:30:22.470Z,10.73
2022-09-13T06:32:58.073Z,10.76
2022-09-13T06:35:27.810Z,10.83
2022-09-13T06:37:58.795Z,10.77
2022-09-13T06:40:28.629Z,10.66
2022-09-13T06:43:00.170Z,10.71
2022-09-13T06:45:29.401Z,10.74
2022-09-13T06:47:58.525Z,10.83
2022-09-13T06:50:27.701Z,10.81
2022-09-13T06:52:58.578Z,10.82
2022-09-13T06:55:32.918Z,10.73
2022-09-13T06:58:04.214Z,10.76
2022-09-13T07:00:33.295Z,10.72
2022-09-13T07:03:02.400Z,10.58
2022-09-13T07:05:31.499Z,10.74
2022-09-13T07:08:12.149Z,10.93
2022-09-13T07:10:41.301Z,11.10
2022-09-13T07:13:12.362Z,11.22
2022-09-13T07:15:41.473Z,11.30
2022-09-13T07:18:11.056Z,11.31
2022-09-13T07:20:40.257Z,11.33
2022-09-13T07:23:13.561Z,11.34
2022-09-13T07:25:44.419Z,11.47
2022-09-13T07:28:22.414Z,11.62
2022-09-13T07:30:51.953Z,11.72
2022-09-13T07:33:21.057Z,11.76
2022-09-13T07:35:59.940Z,11.70
2022-09-13T07:38:29.572Z,11.86
2022-09-13T07:40:59.210Z,11.76
2022-09-13T07:43:31.570Z,11.72
2022-09-13T07:46:02.125Z,11.83
2022-09-13T07:48:39.058Z,11.65
2022-09-13T07:51:08.918Z,11.71
2022-09-13T07:53:44.367Z,11.58
2022-09-13T07:56:15.613Z,11.53
2022-09-13T07:58:54.586Z,11.53
2022-09-13T08:01:25.822Z,11.65
2022-09-13T08:03:56.498Z,11.74
2022-09-13T08:06:32.062Z,11.77
2022-09-13T08:09:08.122Z,11.84
2022-09-13T08:11:44.266Z,11.95
2022-09-13T08:14:17.281Z,12.13
2022-09-13T08:16:46.443Z,12.28
2022-09-13T08:19:17.627Z,12.35
2022-09-13T08:21:47.581Z,12.46
2022-09-13T08:24:28.195Z,12.65
2022-09-13T08:27:02.376Z,12.75
2022-09-13T08:29:33.494Z,12.76
2022-09-13T08:32:02.817Z,12.88
2022-09-13T08:34:33.135Z,13.01
2022-09-13T08:37:07.392Z,13.07
2022-09-13T08:39:36.506Z,13.16
2022-09-13T08:42:28.348Z,13.21
2022-09-13T08:45:01.700Z,13.28
2022-09-13T08:47:43.187Z,13.33
2022-09-13T08:50:21.282Z,13.31
2022-09-13T08:52:59.066Z,13.13
2022-09-13T08:55:42.305Z,13.20
2022-09-13T08:58:41.049Z,13.17
2022-09-13T09:01:23.049Z,13.05
2022-09-13T09:04:02.051Z,13.34
2022-09-13T09:06:31.426Z,13.36
2022-09-13T09:09:04.582Z,13.42
2022-09-13T09:11:43.661Z,13.61
2022-09-13T09:14:19.479Z,13.91
2022-09-13T09:17:05.065Z,14.08
2022-09-13T09:19:40.029Z,14.39
2022-09-13T09:22:18.554Z,14.70
2022-09-13T09:24:52.798Z,14.93
2022-09-13T09:27:25.504Z,15.07
2022-09-13T09:29:57.768Z,15.13
2022-09-13T09:32:49.126Z,15.44
2022-09-13T09:35:30.934Z,15.55
2022-09-13T09:38:21.616Z,15.71
2022-09-13T09:40:51.254Z,15.93
2022-09-13T09:43:26.642Z,16.02
2022-09-13T09:45:59.267Z,15.96
2022-09-13T09:48:45.097Z,16.21
2022-09-13T09:51:17.195Z,16.21
2022-09-13T09:53:50.383Z,16.08
2022-09-13T09:56:25.130Z,15.99
2022-09-13T09:58:56.132Z,15.85
2022-09-13T10:01:34.643Z,15.88
2022-09-13T10:04:10.403Z,15.86
2022-09-13T10:06:41.572Z,15.73
2022-09-13T10:09:19.378Z,15.57
2022-09-13T10:11:51.993Z,15.44
2022-09-13T10:14:39.146Z,15.40
2022-09-13T10:17:17.867Z,15.20
2022-09-13T10:20:00.897Z,15.14
2022-09-13T10:22:38.056Z,14.92
2022-09-13T10:25:17.500Z,15.00
2022-09-13T10:27:53.470Z,14.96
2022-09-13T10:30:34.915Z,14.74
2022-09-13T10:33:05.608Z,14.51
2022-09-13T10:35:36.709Z,14.51
2022-09-13T10:38:06.070Z,14.42
2022-09-13T10:40:38.953Z,14.40
2022-09-13T10:43:19.072Z,14.45
2022-09-13T10:45:51.855Z,14.47
2022-09-13T10:48:22.247Z,14.51
2022-09-13T10:51:07.090Z,14.57
2022-09-13T10:53:40.159Z,14.48
2022-09-13T10:56:22.351Z,14.46
2022-09-13T10:58:51.627Z,14.43
2022-09-13T11:01:43.442Z,14.37
2022-09-13T11:04:42.594Z,14.34
2022-09-13T11:07:39.899Z,14.33
2022-09-13T11:10:19.223Z,14.39
2022-09-13T11:13:02.428Z,14.37
2022-09-13T11:15:45.517Z,14.41
2022-09-13T11:18:58.734Z,14.28
2022-09-13T11:21:45.445Z,14.52
2022-09-13T11:24:47.641Z,14.54
2022-09-13T11:27:30.189Z,14.46
2022-09-13T11:30:17.883Z,14.52
2022-09-13T11:33:01.082Z,14.60
2022-09-13T11:35:41.014Z,14.46
2022-09-13T11:38:25.862Z,14.43
2022-09-13T11:41:01.934Z,14.40
2022-09-13T11:43:51.790Z,14.43
2022-09-13T11:46:33.216Z,14.39
2022-09-13T11:49:34.565Z,14.40
2022-09-13T11:52:17.722Z,14.36
2022-09-13T11:55:01.766Z,14.30
2022-09-13T11:57:37.431Z,14.34
2022-09-13T12:00:25.316Z,14.36
2022-09-13T12:03:09.335Z,14.38
2022-09-13T12:08:23.779Z,14.16
2022-09-13T12:11:11.853Z,14.05
2022-09-13T12:13:56.586Z,14.12
2022-09-13T12:16:36.076Z,14.04
2022-09-13T12:19:19.279Z,14.10
2022-09-13T12:22:00.963Z,14.05
2022-09-13T12:24:35.602Z,14.05
2022-09-13T12:27:20.997Z,13.80
2022-09-13T12:29:54.762Z,14.14
2022-09-13T12:32:36.181Z,14.12
2022-09-13T12:35:07.915Z,14.07
2022-09-13T12:37:49.219Z,14.17
2022-09-13T12:40:45.329Z,14.06
2022-09-13T12:43:55.841Z,14.17
2022-09-13T12:47:04.010Z,14.10
2022-09-13T12:57:21.398Z,13.84
2022-09-13T13:00:15.328Z,13.85
2022-09-13T13:03:05.171Z,13.88
2022-09-13T13:05:38.104Z,13.93
2022-09-13T13:08:32.945Z,13.90
2022-09-13T13:11:05.348Z,13.87
2022-09-13T13:13:41.918Z,13.85
2022-09-13T13:16:29.027Z,13.75
2022-09-13T13:19:00.055Z,13.79
2022-09-13T13:21:33.273Z,13.78
2022-09-13T13:24:32.473Z,13.85
2022-09-13T13:27:01.598Z,13.81
2022-09-13T13:29:33.406Z,13.80
2022-09-13T13:32:14.188Z,13.83
2022-09-13T13:34:50.327Z,13.79
2022-09-13T13:37:41.839Z,13.77
2022-09-13T13:40:29.310Z,13.85
2022-09-13T13:43:32.247Z,13.77
2022-09-13T13:46:30.844Z,13.75
2022-09-13T13:49:29.626Z,13.78
2022-09-13T13:52:40.365Z,13.81
2022-09-13T13:55:40.944Z,13.78
2022-09-13T13:58:29.263Z,13.76
2022-09-13T14:01:01.993Z,13.77
2022-09-13T14:03:54.654Z,13.76
2022-09-13T14:06:35.149Z,13.81
2022-09-13T14:09:30.253Z,13.83
2022-09-13T14:12:21.919Z,13.95
2022-09-13T14:15:10.281Z,13.96
2022-09-13T14:18:03.464Z,13.89
2022-09-13T14:20:39.594Z,13.86
2022-09-13T14:23:15.118Z,13.84
2022-09-13T14:25:45.350Z,13.63
2022-09-13T14:28:19.678Z,13.79
2022-09-13T14:30:56.834Z,13.80
2022-09-13T14:33:30.955Z,13.86
2022-09-13T14:36:08.144Z,13.80
2022-09-13T14:38:38.211Z,13.76
2022-09-13T14:41:19.405Z,13.72
2022-09-13T14:43:50.143Z,13.75
2022-09-13T14:46:25.087Z,13.69
2022-09-13T14:49:00.119Z,13.69
2022-09-13T14:51:46.311Z,13.63
2022-09-13T14:54:20.418Z,13.57
2022-09-13T14:56:56.737Z,13.56
2022-09-13T14:59:29.631Z,13.51
2022-09-13T15:02:08.644Z,13.36
2022-09-13T15:04:43.191Z,13.28
2022-09-13T15:07:23.615Z,13.43
2022-09-13T15:10:00.281Z,13.41
2022-09-13T15:12:34.206Z,13.22
2022-09-13T15:15:33.074Z,13.32
2022-09-13T15:18:05.928Z,13.28
2022-09-13T15:20:50.946Z,13.22
2022-09-13T15:23:27.685Z,13.23
2022-09-13T15:25:58.709Z,13.15
2022-09-13T15:28:30.025Z,13.14
2022-09-13T15:31:01.582Z,13.10
2022-09-13T15:33:33.790Z,13.08
2022-09-13T15:36:17.482Z,13.02
2022-09-13T15:39:16.490Z,12.98
2022-09-13T15:41:55.067Z,12.86
2022-09-13T15:44:30.467Z,12.88
2022-09-13T15:47:09.869Z,12.88
2022-09-13T15:49:46.709Z,12.86
2022-09-13T15:52:17.156Z,12.81
2022-09-13T15:54:54.948Z,12.86
2022-09-13T15:57:26.156Z,12.79
2022-09-13T16:00:06.227Z,12.70
2022-09-13T16:02:38.990Z,12.64
2022-09-13T16:05:11.661Z,12.57
2022-09-13T16:07:41.547Z,12.54
2022-09-13T16:10:23.145Z,12.51
2022-09-13T16:12:52.380Z,12.43
2022-09-13T16:15:21.494Z,12.41
2022-09-13T16:17:50.640Z,12.35
2022-09-13T16:20:19.881Z,12.32
2022-09-13T16:22:56.929Z,12.27
2022-09-13T16:25:28.072Z,12.28
2022-09-13T16:28:02.723Z,12.24
2022-09-13T16:30:33.027Z,12.20
2022-09-13T16:33:02.420Z,12.00
2022-09-13T16:35:33.784Z,12.05
2022-09-13T16:38:07.988Z,12.10
2022-09-13T16:40:41.012Z,12.08
2022-09-13T16:43:15.519Z,12.03
2022-09-13T16:45:44.866Z,12.01
2022-09-13T16:48:13.892Z,12.05
2022-09-13T16:50:43.548Z,12.03
2022-09-13T16:53:12.674Z,11.96
2022-09-13T16:55:45.967Z,11.92
2022-09-13T16:58:20.645Z,11.97
2022-09-13T17:00:50.041Z,11.97
2022-09-13T17:03:20.866Z,11.96
2022-09-13T17:06:01.330Z,11.81
2022-09-13T17:08:31.040Z,11.97
2022-09-13T17:11:02.303Z,12.01
2022-09-13T17:13:34.291Z,11.96
2022-09-13T17:16:04.079Z,11.99
2022-09-13T17:18:33.545Z,12.00
2022-09-13T17:21:08.173Z,11.79
2022-09-13T17:23:37.207Z,11.85
2022-09-13T17:26:13.505Z,11.87
2022-09-13T17:28:42.933Z,11.84
2022-09-13T17:31:17.814Z,11.84
2022-09-13T17:33:47.922Z,11.82
2022-09-13T17:36:17.363Z,11.67
2022-09-13T17:38:46.738Z,11.64
2022-09-13T17:41:20.065Z,11.67
2022-09-13T17:43:49.435Z,11.55
2022-09-13T17:46:21.289Z,11.52
2022-09-13T17:48:51.506Z,11.45
2022-09-13T17:51:22.563Z,11.34
2022-09-13T17:53:58.291Z,11.34
2022-09-13T17:56:33.139Z,11.30
2022-09-13T17:59:10.253Z,11.23
2022-09-13T18:01:41.708Z,11.07
2022-09-13T18:04:12.012Z,11.14
2022-09-13T18:06:42.410Z,11.04
2022-09-13T18:09:18.979Z,10.89
2022-09-13T18:11:50.122Z,10.93
2022-09-13T18:14:20.646Z,10.99
2022-09-13T18:16:56.682Z,10.80
2022-09-13T18:19:45.303Z,10.89
2022-09-13T18:22:20.509Z,10.79
2022-09-13T18:24:54.765Z,10.83
2022-09-13T18:27:26.080Z,10.79
2022-09-13T18:29:55.336Z,10.71
2022-09-13T18:32:24.358Z,10.68
2022-09-13T18:34:53.670Z,10.61
2022-09-13T18:37:22.966Z,10.59
2022-09-13T18:39:52.599Z,10.52
2022-09-13T18:42:21.640Z,10.56
2022-09-13T18:44:52.778Z,10.60
2022-09-13T18:47:22.025Z,10.60
2022-09-13T18:52:26.035Z,10.43
2022-09-13T18:55:00.333Z,10.53
2022-09-13T18:57:29.889Z,10.48
2022-09-13T19:00:02.669Z,10.48
2022-09-13T19:02:47.875Z,10.33
2022-09-13T19:05:28.506Z,10.39
2022-09-13T19:07:57.859Z,10.27
2022-09-13T19:10:28.129Z,10.41
2022-09-13T19:12:57.422Z,10.39
2022-09-13T19:15:29.002Z,10.46
2022-09-13T19:17:58.466Z,10.38
2022-09-13T19:20:27.989Z,10.46
2022-09-13T19:22:57.767Z,10.45
2022-09-13T19:25:29.922Z,10.46
2022-09-13T19:28:06.199Z,10.43
2022-09-13T19:30:38.559Z,10.44
2022-09-13T19:35:42.832Z,10.44
2022-09-13T19:38:12.460Z,10.44
2022-09-13T19:40:41.829Z,10.39
2022-09-13T19:43:17.548Z,10.45
2022-09-13T19:46:01.844Z,10.41
2022-09-13T19:48:38.637Z,10.30
2022-09-13T19:51:10.647Z,10.37
2022-09-13T19:53:56.398Z,10.38
2022-09-13T19:56:29.010Z,10.41
2022-09-13T19:59:03.976Z,10.38
2022-09-13T20:01:37.379Z,10.36
2022-09-13T20:04:11.162Z,10.31
2022-09-13T20:06:53.028Z,10.37
2022-09-13T20:09:23.329Z,10.38
2022-09-13T20:11:59.590Z,10.21
2022-09-13T20:14:28.815Z,10.33
2022-09-13T20:17:01.994Z,10.34
2022-09-13T20:19:50.088Z,10.31
2022-09-13T20:22:24.609Z,10.21
2022-09-13T20:24:58.702Z,10.35
2022-09-13T20:27:30.796Z,10.31
2022-09-13T20:30:00.450Z,10.26
2022-09-13T20:32:31.408Z,10.31
2022-09-13T20:35:00.662Z,10.23
2022-09-13T20:37:29.715Z,10.12
2022-09-13T20:40:02.603Z,10.12
2022-09-13T20:42:32.783Z,9.91
2022-09-13T20:45:01.980Z,9.93
2022-09-13T20:47:36.319Z,9.84
2022-09-13T20:50:12.648Z,9.93
2022-09-13T20:52:42.433Z,9.92
2022-09-13T20:55:11.773Z,9.90
2022-09-13T20:57:41.303Z,9.95
2022-09-13T21:00:12.250Z,9.90
2022-09-13T21:02:43.943Z,9.92
2022-09-13T21:05:13.138Z,9.97
2022-09-13T21:07:55.194Z,10.05
2022-09-13T21:10:25.778Z,9.98
2022-09-13T21:12:55.815Z,9.97
2022-09-13T21:15:24.946Z,9.97
2022-09-13T21:18:02.063Z,9.97
2022-09-13T21:20:38.596Z,9.93
2022-09-13T21:23:08.512Z,9.92
2022-09-13T21:25:38.083Z,9.93
2022-09-13T21:28:07.398Z,9.91
2022-09-13T21:30:41.912Z,9.96
2022-09-13T21:33:13.216Z,9.76
2022-09-13T21:35:53.524Z,9.87
2022-09-13T21:38:22.639Z,9.82
2022-09-13T21:40:59.635Z,9.87
2022-09-13T21:43:29.388Z,9.81
2022-09-13T21:46:03.638Z,9.85
2022-09-13T21:48:36.052Z,9.81
2022-09-13T21:51:12.810Z,9.80
2022-09-13T21:53:42.039Z,9.77
2022-09-13T21:56:13.795Z,9.76
2022-09-13T21:58:43.365Z,9.72
2022-09-13T22:01:14.730Z,9.80
2022-09-13T22:03:47.119Z,9.86
2022-09-13T22:06:19.272Z,9.74
2022-09-13T22:08:49.974Z,9.90
2022-09-13T22:11:21.068Z,9.85
2022-09-13T22:13:50.936Z,9.84
2022-09-13T22:16:21.898Z,9.88
2022-09-13T22:18:56.976Z,9.91
2022-09-13T22:21:33.173Z,9.95
2022-09-13T22:24:02.881Z,9.84
2022-09-13T22:26:35.049Z,9.93
2022-09-13T22:29:05.124Z,9.96
2022-09-13T22:31:37.202Z,9.91
2022-09-13T22:34:10.227Z,9.88
2022-09-13T22:36:44.730Z,9.81
2022-09-13T22:39:15.427Z,9.77
2022-09-13T22:44:19.754Z,9.65
2022-09-13T22:46:50.315Z,9.70
2022-09-13T22:49:22.312Z,9.65
2022-09-13T22:51:51.095Z,9.90
2022-09-13T22:54:21.447Z,9.71
2022-09-13T22:56:50.661Z,9.72
2022-09-13T22:59:22.000Z,9.69
2022-09-13T23:01:51.809Z,9.75
2022-09-13T23:04:23.038Z,9.52
2022-09-13T23:06:58.818Z,9.74
2022-09-13T23:09:28.061Z,9.74
2022-09-13T23:11:57.381Z,9.76
2022-09-13T23:14:31.465Z,9.72
2022-09-13T23:17:00.682Z,9.76
2022-09-13T23:19:37.042Z,9.80
2022-09-13T23:22:06.426Z,9.82
2022-09-13T23:24:35.650Z,9.78
2022-09-13T23:27:04.850Z,9.78
2022-09-13T23:29:33.838Z,9.76
2022-09-13T23:32:14.069Z,9.76
2022-09-13T23:34:45.134Z,9.75
2022-09-13T23:37:19.460Z,9.77
2022-09-13T23:39:48.677Z,9.70
2022-09-13T23:42:21.121Z,9.62
2022-09-13T23:44:50.375Z,9.62
2022-09-13T23:47:19.388Z,9.70
2022-09-13T23:49:50.848Z,9.64
2022-09-13T23:52:20.051Z,9.71
2022-09-13T23:54:50.385Z,9.74
2022-09-13T23:57:19.789Z,9.78
2022-09-13T23:59:55.545Z,9.82
